createdAt,value
2022-12-29T00:01:43.583Z,2.50
2022-12-29T00:04:15.766Z,3.73
2022-12-29T00:06:44.340Z,2.93
2022-12-29T00:09:16.293Z,2.70
2022-12-29T00:11:43.670Z,2.50
2022-12-29T00:14:31.764Z,2.90
2022-12-29T00:16:59.009Z,4.67
2022-12-29T00:19:45.297Z,3.50
2022-12-29T00:22:33.844Z,3.10
2022-12-29T00:25:02.371Z,3.50
2022-12-29T00:27:50.069Z,4.30
2022-12-29T00:30:52.186Z,4.13
2022-12-29T00:33:40.738Z,2.33
2022-12-29T00:36:33.871Z,2.40
2022-12-29T00:39:25.053Z,2.87
2022-12-29T00:42:10.745Z,1.90
2022-12-29T00:44:37.831Z,2.73
2022-12-29T00:47:05.470Z,2.53
2022-12-29T00:49:33.382Z,1.90
2022-12-29T00:52:08.105Z,2.67
2022-12-29T00:54:38.127Z,2.63
2022-12-29T00:57:07.795Z,1.87
2022-12-29T00:59:41.693Z,2.40
2022-12-29T01:02:10.410Z,2.20
2022-12-29T01:04:38.385Z,3.87
2022-12-29T01:07:05.823Z,2.83
2022-12-29T01:09:51.956Z,1.80
2022-12-29T01:12:39.775Z,1.90
2022-12-29T01:15:11.951Z,1.70
2022-12-29T01:17:39.085Z,2.50
2022-12-29T01:20:06.990Z,1.83
2022-12-29T01:22:34.276Z,2.20
2022-12-29T01:25:01.341Z,2.10
2022-12-29T01:27:29.358Z,1.70
2022-12-29T01:29:56.607Z,2.37
2022-12-29T01:32:24.320Z,1.60
2022-12-29T01:34:51.318Z,1.43
2022-12-29T01:37:18.481Z,4.23
2022-12-29T01:39:45.703Z,2.03
2022-12-29T01:42:24.297Z,2.97
2022-12-29T01:44:58.088Z,3.47
2022-12-29T01:47:40.264Z,1.00
2022-12-29T01:50:18.002Z,3.93
2022-12-29T01:53:06.485Z,3.07
2022-12-29T01:55:44.165Z,2.40
2022-12-29T01:58:15.944Z,1.63
2022-12-29T02:00:43.007Z,2.40
2022-12-29T02:03:10.676Z,2.30
2022-12-29T02:06:11.773Z,1.40
2022-12-29T02:08:41.113Z,2.03
2022-12-29T02:11:08.992Z,1.93
2022-12-29T02:13:36.051Z,2.17
2022-12-29T02:16:21.620Z,4.30
2022-12-29T02:19:45.555Z,2.53
2022-12-29T02:22:50.962Z,2.40
2022-12-29T02:25:23.822Z,3.67
2022-12-29T02:28:32.383Z,1.60
2022-12-29T02:31:42.587Z,1.30
2022-12-29T02:34:31.267Z,3.33
2022-12-29T02:37:22.182Z,3.43
2022-12-29T02:40:33.863Z,3.53
2022-12-29T02:43:32.415Z,2.90
2022-12-29T02:46:28.879Z,2.37
2022-12-29T02:49:12.121Z,3.43
2022-12-29T02:52:02.170Z,2.13
2022-12-29T02:54:44.360Z,1.77
2022-12-29T02:57:32.682Z,3.67
2022-12-29T03:00:11.985Z,3.33
2022-12-29T03:03:05.937Z,1.70
2022-12-29T03:06:16.644Z,2.63
2022-12-29T03:09:18.814Z,1.33
2022-12-29T03:13:03.059Z,3.23
2022-12-29T03:16:03.614Z,2.07
2022-12-29T03:18:48.503Z,2.50
2022-12-29T03:22:01.299Z,1.63
2022-12-29T03:24:39.439Z,1.93
2022-12-29T03:27:10.159Z,2.63
2022-12-29T03:30:02.397Z,2.13
2022-12-29T03:32:56.883Z,1.63
2022-12-29T03:35:30.458Z,1.47
2022-12-29T03:38:22.605Z,2.60
2022-12-29T03:40:56.325Z,1.50
2022-12-29T03:43:23.754Z,3.67
2022-12-29T03:45:51.395Z,1.87
2022-12-29T03:48:18.480Z,4.40
2022-12-29T03:50:46.523Z,3.23
2022-12-29T03:53:13.523Z,1.97
2022-12-29T03:55:40.485Z,3.30
2022-12-29T03:58:07.531Z,3.50
2022-12-29T04:00:34.541Z,2.93
2022-12-29T04:03:01.779Z,2.23
2022-12-29T04:05:28.948Z,1.87
2022-12-29T04:07:55.975Z,1.00
2022-12-29T04:10:23.250Z,2.50
2022-12-29T04:12:50.404Z,2.13
2022-12-29T04:15:17.884Z,2.10
2022-12-29T04:17:45.438Z,2.17
2022-12-29T04:20:31.277Z,3.80
2022-12-29T04:23:05.980Z,2.47
2022-12-29T04:25:33.692Z,3.20
2022-12-29T04:28:02.001Z,3.40
2022-12-29T04:30:29.216Z,3.20
2022-12-29T04:32:56.197Z,2.90
2022-12-29T04:35:23.225Z,4.80
2022-12-29T04:37:50.253Z,4.87
2022-12-29T04:40:17.334Z,5.83
2022-12-29T04:42:44.377Z,6.83
2022-12-29T04:45:11.812Z,4.63
2022-12-29T04:47:38.951Z,3.67
2022-12-29T04:50:06.662Z,7.87
2022-12-29T04:52:33.869Z,5.30
2022-12-29T04:55:02.008Z,4.10
2022-12-29T04:57:29.135Z,3.00
2022-12-29T04:59:56.164Z,5.30
2022-12-29T05:02:23.432Z,3.50
2022-12-29T05:04:50.610Z,3.97
2022-12-29T05:07:17.787Z,3.97
2022-12-29T05:09:45.372Z,4.10
2022-12-29T05:12:12.518Z,4.40
2022-12-29T05:14:39.716Z,4.23
2022-12-29T05:17:06.771Z,4.30
2022-12-29T05:19:35.314Z,1.97
2022-12-29T05:22:02.406Z,1.27
2022-12-29T05:24:29.369Z,2.20
2022-12-29T05:26:56.500Z,3.63
2022-12-29T05:29:23.603Z,4.43
2022-12-29T05:31:50.667Z,3.30
2022-12-29T05:34:17.785Z,2.43
2022-12-29T05:36:45.495Z,7.40
2022-12-29T05:39:12.465Z,1.63
2022-12-29T05:41:39.463Z,2.00
2022-12-29T05:44:06.927Z,3.47
2022-12-29T05:46:34.162Z,3.73
2022-12-29T05:49:01.186Z,4.40
2022-12-29T05:51:28.338Z,3.57
2022-12-29T05:53:55.530Z,3.97
2022-12-29T05:56:22.604Z,3.63
2022-12-29T05:58:49.818Z,4.27
2022-12-29T06:01:17.138Z,5.40
2022-12-29T06:03:48.138Z,4.90
2022-12-29T06:06:15.948Z,3.20
2022-12-29T06:08:43.032Z,5.83
2022-12-29T06:11:10.356Z,2.43
2022-12-29T06:13:38.669Z,3.67
2022-12-29T06:16:06.337Z,4.00
2022-12-29T06:18:33.346Z,3.30
2022-12-29T06:21:05.373Z,5.53
2022-12-29T06:23:32.807Z,4.00
2022-12-29T06:25:59.914Z,4.87
2022-12-29T06:28:27.154Z,3.90
2022-12-29T06:30:54.229Z,3.23
2022-12-29T06:33:21.870Z,5.87
2022-12-29T06:35:49.001Z,3.80
2022-12-29T06:38:16.007Z,5.23
2022-12-29T06:40:46.133Z,4.83
2022-12-29T06:43:13.617Z,4.43
2022-12-29T06:45:41.733Z,6.33
2022-12-29T06:48:09.363Z,6.50
2022-12-29T06:50:36.450Z,5.37
2022-12-29T06:53:03.771Z,8.07
2022-12-29T06:55:30.901Z,4.83
2022-12-29T06:57:59.479Z,4.17
2022-12-29T07:00:26.661Z,6.13
2022-12-29T07:02:56.135Z,6.80
2022-12-29T07:05:23.223Z,5.83
2022-12-29T07:07:50.208Z,5.13
2022-12-29T07:10:17.300Z,5.70
2022-12-29T07:12:44.516Z,4.70
2022-12-29T07:15:11.944Z,6.40
2022-12-29T07:17:39.305Z,6.13
2022-12-29T07:20:08.152Z,12.80
2022-12-29T07:22:35.272Z,6.83
2022-12-29T07:25:03.470Z,5.50
2022-12-29T07:27:30.518Z,9.17
2022-12-29T07:29:57.576Z,15.90
2022-12-29T07:32:24.628Z,6.10
2022-12-29T07:34:51.809Z,8.33
2022-12-29T07:37:19.654Z,6.07
2022-12-29T07:39:46.784Z,9.20
2022-12-29T07:42:13.832Z,6.63
2022-12-29T07:44:41.390Z,7.20
2022-12-29T07:47:08.554Z,7.17
2022-12-29T07:49:35.549Z,6.37
2022-12-29T07:52:02.657Z,4.03
2022-12-29T07:54:29.674Z,9.50
2022-12-29T07:56:56.879Z,6.20
2022-12-29T07:59:24.080Z,5.53
2022-12-29T08:01:51.399Z,5.40
2022-12-29T08:04:18.975Z,5.53
2022-12-29T08:06:46.573Z,8.17
2022-12-29T08:09:21.599Z,6.73
2022-12-29T08:11:49.959Z,6.70
2022-12-29T08:14:17.103Z,5.70
2022-12-29T08:16:44.080Z,6.10
2022-12-29T08:19:14.635Z,7.97
2022-12-29T08:21:42.375Z,8.13
2022-12-29T08:24:10.433Z,8.27
2022-12-29T08:26:37.633Z,7.93
2022-12-29T08:29:04.611Z,9.20
2022-12-29T08:31:31.715Z,5.97
2022-12-29T08:33:58.854Z,4.47
2022-12-29T08:36:25.809Z,9.63
2022-12-29T08:38:53.479Z,8.30
2022-12-29T08:41:20.438Z,7.23
2022-12-29T08:43:49.127Z,4.50
2022-12-29T08:46:17.698Z,8.00
2022-12-29T08:48:44.853Z,7.53
2022-12-29T08:51:12.015Z,6.23
2022-12-29T08:53:39.223Z,6.47
2022-12-29T08:56:07.168Z,6.27
2022-12-29T08:58:34.317Z,5.80
2022-12-29T09:01:01.537Z,6.87
2022-12-29T09:04:04.299Z,9.83
2022-12-29T09:06:18.241Z,5.97
2022-12-29T09:08:45.920Z,6.53
2022-12-29T09:11:23.857Z,6.17
2022-12-29T09:13:52.599Z,7.35
2022-12-29T09:16:22.170Z,8.82
2022-12-29T09:18:49.231Z,6.33
2022-12-29T09:21:16.905Z,4.97
2022-12-29T09:23:43.908Z,4.85
2022-12-29T09:26:11.057Z,6.93
2022-12-29T09:28:38.377Z,7.38
2022-12-29T09:31:05.746Z,10.88
2022-12-29T09:33:34.720Z,8.60
2022-12-29T09:36:01.964Z,5.22
2022-12-29T09:38:30.187Z,9.30
2022-12-29T09:41:21.709Z,6.53
2022-12-29T09:44:07.756Z,6.47
2022-12-29T09:46:47.181Z,6.93
2022-12-29T09:49:19.941Z,7.17
2022-12-29T09:51:53.123Z,8.67
2022-12-29T09:54:53.839Z,8.43
2022-12-29T09:57:28.230Z,5.97
2022-12-29T10:00:12.686Z,7.70
2022-12-29T10:02:56.023Z,6.30
2022-12-29T10:06:12.154Z,5.83
2022-12-29T10:09:22.551Z,4.97
2022-12-29T10:12:13.727Z,9.33
2022-12-29T10:15:08.600Z,8.23
2022-12-29T10:18:21.856Z,8.73
2022-12-29T10:21:47.716Z,7.03
2022-12-29T10:24:14.820Z,5.77
2022-12-29T10:26:44.955Z,8.30
2022-12-29T10:29:22.542Z,7.43
2022-12-29T10:32:06.947Z,7.03
2022-12-29T10:34:50.944Z,8.03
2022-12-29T10:38:04.703Z,7.63
2022-12-29T10:40:43.563Z,5.30
2022-12-29T10:43:48.338Z,10.17
2022-12-29T10:46:26.410Z,4.83
2022-12-29T10:48:53.433Z,6.23
2022-12-29T10:51:30.954Z,5.47
2022-12-29T10:54:24.910Z,9.67
2022-12-29T10:56:54.689Z,3.53
2022-12-29T10:59:28.998Z,4.40
2022-12-29T11:02:08.346Z,7.80
2022-12-29T11:04:50.317Z,8.47
2022-12-29T11:07:26.693Z,5.77
2022-12-29T11:09:55.042Z,6.07
2022-12-29T11:12:32.639Z,10.18
2022-12-29T11:15:07.266Z,7.15
2022-12-29T11:17:45.890Z,7.70
2022-12-29T11:20:36.685Z,6.17
2022-12-29T11:23:06.853Z,6.82
2022-12-29T11:25:34.638Z,6.80
2022-12-29T11:28:18.143Z,6.85
2022-12-29T11:30:45.635Z,5.53
2022-12-29T11:33:12.713Z,8.10
2022-12-29T11:35:44.524Z,8.75
2022-12-29T11:38:26.933Z,8.18
2022-12-29T11:40:54.205Z,13.90
2022-12-29T11:43:48.625Z,7.35
2022-12-29T11:46:26.524Z,4.93
2022-12-29T11:48:54.163Z,10.90
2022-12-29T11:51:29.648Z,7.82
2022-12-29T11:54:00.753Z,6.03
2022-12-29T11:56:40.507Z,8.52
2022-12-29T11:59:35.304Z,8.48
2022-12-29T12:02:38.745Z,8.60
2022-12-29T12:05:40.923Z,9.65
2022-12-29T12:09:15.430Z,6.13
2022-12-29T12:11:46.465Z,6.88
2022-12-29T12:14:28.803Z,8.75
2022-12-29T12:17:38.535Z,6.63
2022-12-29T12:20:34.243Z,7.20
2022-12-29T12:23:28.595Z,8.27
2022-12-29T12:26:21.833Z,8.73
2022-12-29T12:29:25.810Z,8.80
2022-12-29T12:32:19.620Z,6.83
2022-12-29T12:34:48.791Z,7.77
2022-12-29T12:37:39.520Z,8.23
2022-12-29T12:40:59.883Z,6.22
2022-12-29T12:44:01.192Z,6.78
2022-12-29T12:47:19.108Z,12.73
2022-12-29T12:50:09.243Z,4.70
2022-12-29T12:53:06.951Z,5.43
2022-12-29T12:56:03.923Z,6.22
2022-12-29T12:58:55.099Z,6.15
2022-12-29T13:02:04.815Z,8.15
2022-12-29T13:05:11.222Z,5.50
2022-12-29T13:07:56.802Z,7.40
2022-12-29T13:10:53.524Z,8.60
2022-12-29T13:13:54.836Z,11.80
2022-12-29T13:16:42.862Z,10.97
2022-12-29T13:19:22.056Z,7.38
2022-12-29T13:22:20.159Z,7.67
2022-12-29T13:25:43.503Z,9.63
2022-12-29T13:28:31.264Z,10.77
2022-12-29T13:30:58.168Z,8.03
2022-12-29T13:33:42.909Z,9.93
2022-12-29T13:36:34.902Z,9.77
2022-12-29T13:39:20.896Z,10.37
2022-12-29T13:41:56.803Z,5.43
2022-12-29T13:44:38.562Z,10.87
2022-12-29T13:47:50.733Z,6.97
2022-12-29T13:50:22.011Z,7.87
2022-12-29T13:52:59.893Z,6.27
2022-12-29T13:55:48.529Z,10.47
2022-12-29T13:58:53.976Z,9.60
2022-12-29T14:01:30.616Z,6.27
2022-12-29T14:04:01.192Z,5.37
2022-12-29T14:06:30.446Z,9.67
2022-12-29T14:09:01.971Z,9.87
2022-12-29T14:11:42.167Z,6.20
2022-12-29T14:14:31.596Z,7.87
2022-12-29T14:17:21.766Z,6.97
2022-12-29T14:19:54.631Z,6.43
2022-12-29T14:22:33.323Z,10.27
2022-12-29T14:25:01.425Z,8.87
2022-12-29T14:27:31.181Z,8.93
2022-12-29T14:29:58.249Z,5.67
2022-12-29T14:32:27.932Z,6.37
2022-12-29T14:35:00.859Z,10.07
2022-12-29T14:37:40.048Z,5.57
2022-12-29T14:40:28.888Z,7.33
2022-12-29T14:42:58.050Z,5.33
2022-12-29T14:45:34.132Z,10.40
2022-12-29T14:48:01.429Z,9.27
2022-12-29T14:50:44.436Z,7.57
2022-12-29T14:53:50.646Z,6.27
2022-12-29T14:56:32.214Z,8.33
2022-12-29T14:59:04.723Z,7.00
2022-12-29T15:01:51.070Z,6.53
2022-12-29T15:04:27.855Z,8.90
2022-12-29T15:06:55.595Z,11.33
2022-12-29T15:09:37.507Z,8.93
2022-12-29T15:12:25.309Z,5.57
2022-12-29T15:14:58.391Z,9.33
2022-12-29T15:17:29.394Z,10.23
2022-12-29T15:19:59.215Z,5.83
2022-12-29T15:22:27.393Z,4.80
2022-12-29T15:24:56.711Z,4.17
2022-12-29T15:27:27.521Z,5.30
2022-12-29T15:30:05.052Z,4.17
2022-12-29T15:32:46.322Z,4.67
2022-12-29T15:35:36.176Z,5.20
2022-12-29T15:38:40.475Z,7.03
2022-12-29T15:41:58.344Z,4.10
2022-12-29T15:44:33.372Z,6.17
2022-12-29T15:47:15.508Z,6.93
2022-12-29T15:49:45.372Z,3.97
2022-12-29T15:52:18.939Z,5.13
2022-12-29T15:54:46.655Z,3.67
2022-12-29T15:57:31.404Z,2.77
2022-12-29T16:00:01.150Z,2.97
2022-12-29T16:02:29.469Z,4.97
2022-12-29T16:07:56.328Z,3.60
2022-12-29T16:10:34.716Z,3.67
2022-12-29T16:13:13.296Z,4.23
2022-12-29T16:15:40.466Z,3.43
2022-12-29T16:18:28.691Z,3.03
2022-12-29T16:20:59.018Z,3.57
2022-12-29T16:23:30.207Z,7.87
2022-12-29T16:25:58.775Z,6.00
2022-12-29T16:28:44.530Z,7.93
2022-12-29T16:31:46.422Z,7.13
2022-12-29T16:34:26.801Z,5.73
2022-12-29T16:37:29.684Z,6.07
2022-12-29T16:39:57.007Z,3.77
2022-12-29T16:42:47.099Z,5.57
2022-12-29T16:45:20.763Z,4.43
2022-12-29T16:48:01.353Z,5.67
2022-12-29T16:50:29.480Z,6.60
2022-12-29T16:52:56.589Z,4.87
2022-12-29T16:55:23.956Z,8.40
2022-12-29T16:57:54.530Z,5.63
2022-12-29T17:00:36.315Z,10.20
2022-12-29T17:03:04.561Z,6.70
2022-12-29T17:05:31.695Z,4.70
2022-12-29T17:08:02.041Z,13.10
2022-12-29T17:10:49.544Z,7.90
2022-12-29T17:13:16.632Z,10.53
2022-12-29T17:15:43.973Z,13.67
2022-12-29T17:18:14.058Z,5.70
2022-12-29T17:20:42.375Z,7.43
2022-12-29T17:23:22.853Z,10.47
2022-12-29T17:25:55.256Z,12.37
2022-12-29T17:28:27.801Z,8.57
2022-12-29T17:31:03.279Z,10.13
2022-12-29T17:33:38.205Z,5.77
2022-12-29T17:36:05.429Z,5.83
2022-12-29T17:38:37.580Z,8.17
2022-12-29T17:41:05.010Z,6.47
2022-12-29T17:43:37.062Z,9.67
2022-12-29T17:46:08.075Z,6.40
2022-12-29T17:48:36.182Z,5.57
2022-12-29T17:51:03.496Z,12.83
2022-12-29T17:53:31.489Z,10.17
2022-12-29T17:55:58.720Z,11.03
2022-12-29T17:58:29.501Z,7.80
2022-12-29T18:01:00.884Z,9.07
2022-12-29T18:03:35.187Z,5.40
2022-12-29T18:06:06.628Z,8.87
2022-12-29T18:08:35.763Z,7.83
2022-12-29T18:11:04.116Z,9.80
2022-12-29T18:13:45.474Z,8.60
2022-12-29T18:16:14.818Z,7.27
2022-12-29T18:18:42.228Z,9.13
2022-12-29T18:21:24.517Z,9.50
2022-12-29T18:23:52.154Z,10.47
2022-12-29T18:26:27.991Z,14.73
2022-12-29T18:28:57.437Z,15.60
2022-12-29T18:31:27.239Z,13.83
2022-12-29T18:33:56.491Z,8.30
2022-12-29T18:36:24.040Z,11.57
2022-12-29T18:38:53.981Z,8.53
2022-12-29T18:41:23.208Z,9.97
2022-12-29T18:43:51.110Z,11.57
2022-12-29T18:46:22.831Z,11.70
2022-12-29T18:48:51.963Z,11.67
2022-12-29T18:51:25.119Z,13.50
2022-12-29T18:53:55.239Z,8.90
2022-12-29T18:56:23.926Z,12.27
2022-12-29T18:58:53.438Z,13.43
2022-12-29T19:01:28.453Z,12.20
2022-12-29T19:03:55.777Z,12.47
2022-12-29T19:06:23.085Z,11.63
2022-12-29T19:08:53.275Z,13.43
2022-12-29T19:11:20.383Z,10.80
2022-12-29T19:13:47.600Z,12.73
2022-12-29T19:16:21.888Z,14.67
2022-12-29T19:19:04.087Z,12.60
2022-12-29T19:21:37.055Z,11.67
2022-12-29T19:24:04.715Z,11.53
2022-12-29T19:26:36.708Z,14.30
2022-12-29T19:29:06.342Z,12.27
2022-12-29T19:31:37.294Z,13.00
2022-12-29T19:34:04.423Z,12.70
2022-12-29T19:36:31.609Z,14.33
2022-12-29T19:38:59.313Z,13.53
2022-12-29T19:41:26.608Z,14.17
2022-12-29T19:43:53.722Z,12.43
2022-12-29T19:46:21.089Z,17.73
2022-12-29T19:48:48.272Z,11.10
2022-12-29T19:51:17.343Z,13.10
2022-12-29T19:53:46.042Z,14.00
2022-12-29T19:56:14.330Z,13.57
2022-12-29T19:58:46.899Z,10.03
2022-12-29T20:01:21.922Z,14.60
2022-12-29T20:03:50.053Z,9.63
2022-12-29T20:06:18.475Z,13.43
2022-12-29T20:08:45.637Z,8.00
2022-12-29T20:11:18.421Z,10.87
2022-12-29T20:13:47.111Z,14.57
2022-12-29T20:16:18.803Z,8.07
2022-12-29T20:18:47.072Z,11.97
2022-12-29T20:21:19.535Z,10.50
2022-12-29T20:23:47.871Z,13.83
2022-12-29T20:26:28.265Z,11.13
2022-12-29T20:28:58.073Z,13.30
2022-12-29T20:31:36.219Z,9.93
2022-12-29T20:34:05.816Z,11.00
2022-12-29T20:36:35.552Z,10.13
2022-12-29T20:39:13.941Z,8.47
2022-12-29T20:41:41.155Z,9.10
2022-12-29T20:44:08.293Z,10.60
2022-12-29T20:46:43.313Z,8.20
2022-12-29T20:49:11.287Z,9.50
2022-12-29T20:52:05.086Z,9.40
2022-12-29T20:54:25.521Z,9.87
2022-12-29T20:56:52.719Z,9.83
2022-12-29T20:59:28.522Z,9.67
2022-12-29T21:01:57.524Z,8.70
2022-12-29T21:04:25.874Z,9.53
2022-12-29T21:06:53.033Z,10.23
2022-12-29T21:09:31.682Z,9.03
2022-12-29T21:12:01.552Z,9.47
2022-12-29T21:14:28.915Z,12.97
2022-12-29T21:16:56.176Z,10.27
2022-12-29T21:19:23.424Z,11.97
2022-12-29T21:21:51.128Z,9.50
2022-12-29T21:24:19.763Z,9.10
2022-12-29T21:26:48.812Z,11.20
2022-12-29T21:29:15.840Z,11.23
2022-12-29T21:31:43.032Z,11.10
2022-12-29T21:34:10.037Z,10.63
2022-12-29T21:36:40.463Z,7.60
2022-12-29T21:39:07.634Z,7.27
2022-12-29T21:41:35.153Z,11.33
2022-12-29T21:44:20.745Z,12.40
2022-12-29T21:46:50.869Z,15.07
2022-12-29T21:49:17.846Z,11.33
2022-12-29T21:51:51.099Z,9.57
2022-12-29T21:54:41.588Z,11.10
2022-12-29T21:57:09.975Z,9.13
2022-12-29T21:59:55.707Z,9.10
2022-12-29T22:02:46.248Z,9.77
2022-12-29T22:05:34.510Z,11.10
2022-12-29T22:08:21.910Z,8.57
2022-12-29T22:11:07.816Z,9.70
2022-12-29T22:13:39.415Z,10.70
2022-12-29T22:16:13.136Z,11.33
2022-12-29T22:18:40.210Z,13.10
2022-12-29T22:21:10.619Z,9.27
2022-12-29T22:23:38.380Z,10.40
2022-12-29T22:26:08.509Z,8.33
2022-12-29T22:28:41.146Z,8.93
2022-12-29T22:31:27.776Z,9.03
2022-12-29T22:34:01.516Z,9.37
2022-12-29T22:36:29.412Z,9.73
2022-12-29T22:38:56.571Z,8.40
2022-12-29T22:41:24.420Z,7.87
2022-12-29T22:43:51.734Z,7.50
2022-12-29T22:46:18.956Z,10.27
2022-12-29T22:48:46.335Z,14.70
2022-12-29T22:51:13.892Z,10.63
2022-12-29T22:53:41.381Z,11.23
2022-12-29T22:56:12.064Z,8.07
2022-12-29T22:58:48.139Z,7.03
2022-12-29T23:01:21.465Z,13.33
2022-12-29T23:03:49.083Z,11.27
2022-12-29T23:06:17.555Z,6.17
2022-12-29T23:08:44.809Z,9.93
2022-12-29T23:11:13.609Z,8.10
2022-12-29T23:13:42.226Z,10.77
2022-12-29T23:16:09.252Z,8.27
2022-12-29T23:18:37.577Z,11.70
2022-12-29T23:21:05.684Z,8.90
2022-12-29T23:23:53.957Z,11.67
2022-12-29T23:26:28.985Z,11.00
2022-12-29T23:29:00.164Z,5.67
2022-12-29T23:31:29.132Z,7.73
2022-12-29T23:33:56.404Z,11.63
2022-12-29T23:36:23.793Z,12.07
2022-12-29T23:38:50.926Z,9.37
2022-12-29T23:41:18.449Z,9.83
2022-12-29T23:43:45.543Z,12.37
2022-12-29T23:46:16.592Z,11.17
2022-12-29T23:48:44.580Z,8.90
2022-12-29T23:51:11.644Z,9.73
2022-12-29T23:53:41.912Z,6.80
2022-12-29T23:56:18.951Z,16.87
2022-12-29T23:58:46.761Z,12.27
